Readyville, Tennessee
Current Conditions -  °F | °C
As of 8:53 AM on Sunday 28 Dec 2014 (Local Time) from KBNA Reporting Station
Light Rain Light Rain  
Wind Chill: 36°   Ceiling: 800
Heat Index: 41°   Visibility: 9mi
Dew Point: 39°   Wind: 7mph
Humidity: 93%   Direction: 350°N
Pressure: 30.18"   Gusts: NA
Location:  35.83°N, 86.17°W
Report Text: KBNA 281453Z 35006KT 9SM -RA OVC008 05/04 A3018 RMK AO2 SLP220 P0002 60007 T00500039 51019
Loading
Personal Weather Stations






























Interactive Weather Map New forecast layout! Learn more

10-Day Weather Forecast

Advertisements
Track Severe Weather on mobile